createdAt,value
2019-06-01T00:02:15.744Z,12.10
2019-06-01T00:04:45.350Z,12.06
2019-06-01T00:07:14.773Z,12.01
2019-06-01T00:09:45.155Z,11.97
2019-06-01T00:12:14.676Z,11.95
2019-06-01T00:14:44.021Z,11.87
2019-06-01T00:17:13.390Z,11.87
2019-06-01T00:19:43.828Z,11.84
2019-06-01T00:22:13.463Z,11.83
2019-06-01T00:24:43.779Z,11.80
2019-06-01T00:27:13.561Z,11.77
2019-06-01T00:29:42.998Z,11.81
2019-06-01T00:32:12.369Z,11.81
2019-06-01T00:34:41.847Z,11.78
2019-06-01T00:37:11.289Z,11.76
2019-06-01T00:39:41.654Z,11.82
2019-06-01T00:42:11.061Z,11.84
2019-06-01T00:44:40.483Z,11.84
2019-06-01T00:47:10.026Z,11.87
2019-06-01T00:49:39.441Z,11.87
2019-06-01T00:52:08.805Z,11.86
2019-06-01T00:54:38.181Z,11.90
2019-06-01T00:57:07.567Z,11.92
2019-06-01T00:59:37.024Z,11.88
2019-06-01T01:02:06.389Z,11.93
2019-06-01T01:04:35.819Z,11.92
2019-06-01T01:07:05.477Z,11.88
2019-06-01T01:09:34.852Z,11.85
2019-06-01T01:12:04.285Z,11.84
2019-06-01T01:14:33.642Z,11.86
2019-06-01T01:17:03.091Z,11.86
2019-06-01T01:19:32.843Z,11.84
2019-06-01T01:22:02.262Z,11.82
2019-06-01T01:24:31.760Z,11.82
2019-06-01T01:27:03.237Z,11.81
2019-06-01T01:29:32.602Z,11.81
2019-06-01T01:32:02.005Z,11.72
2019-06-01T01:34:31.383Z,11.71
2019-06-01T01:37:00.746Z,11.77
2019-06-01T01:39:30.131Z,11.76
2019-06-01T01:41:59.457Z,11.73
2019-06-01T01:44:28.836Z,11.72
2019-06-01T01:46:59.043Z,11.72
2019-06-01T01:49:28.547Z,11.69
2019-06-01T01:51:57.937Z,11.68
2019-06-01T01:54:27.298Z,11.66
2019-06-01T01:56:56.641Z,11.72
2019-06-01T01:59:26.032Z,11.76
2019-06-01T02:01:56.345Z,11.78
2019-06-01T02:04:26.000Z,11.84
2019-06-01T02:06:55.963Z,11.82
2019-06-01T02:09:25.435Z,11.85
2019-06-01T02:11:55.423Z,11.84
2019-06-01T02:14:24.875Z,11.88
2019-06-01T02:16:54.240Z,11.87
2019-06-01T02:19:23.664Z,11.88
2019-06-01T02:21:53.012Z,11.79
2019-06-01T02:24:22.394Z,11.75
2019-06-01T02:26:53.082Z,11.73
2019-06-01T02:29:22.563Z,11.66
2019-06-01T02:31:51.924Z,11.67
2019-06-01T02:34:21.305Z,11.63
2019-06-01T02:36:50.812Z,11.58
2019-06-01T02:39:20.206Z,11.61
2019-06-01T02:41:49.574Z,11.59
2019-06-01T02:44:19.036Z,11.56
2019-06-01T02:46:48.415Z,11.54
2019-06-01T02:49:17.882Z,11.49
2019-06-01T02:51:47.852Z,11.49
2019-06-01T02:54:17.311Z,11.49
2019-06-01T02:56:46.687Z,11.48
2019-06-01T02:59:16.048Z,11.48
2019-06-01T03:01:56.844Z,11.51
2019-06-01T03:04:18.512Z,11.55
2019-06-01T03:06:50.377Z,11.56
2019-06-01T03:09:21.578Z,11.57
2019-06-01T03:11:53.264Z,11.55
2019-06-01T03:14:24.960Z,11.58
2019-06-01T03:16:56.241Z,11.60
2019-06-01T03:19:27.599Z,11.62
2019-06-01T03:22:04.871Z,11.67
2019-06-01T03:24:37.012Z,11.72
2019-06-01T03:27:06.685Z,11.69
2019-06-01T03:29:41.493Z,11.66
2019-06-01T03:32:29.732Z,11.60
2019-06-01T03:34:42.871Z,11.61
2019-06-01T03:37:13.388Z,11.65
2019-06-01T03:39:42.933Z,11.67
2019-06-01T03:42:12.857Z,11.71
2019-06-01T03:44:42.253Z,11.67
2019-06-01T03:47:12.015Z,11.58
2019-06-01T03:49:41.459Z,11.69
2019-06-01T03:52:10.867Z,11.68
2019-06-01T03:54:40.191Z,11.72
2019-06-01T03:57:09.603Z,11.77
2019-06-01T03:59:39.003Z,11.75
2019-06-01T04:02:09.181Z,11.78
2019-06-01T04:04:38.701Z,11.77
2019-06-01T04:07:08.348Z,11.78
2019-06-01T04:09:37.793Z,11.86
2019-06-01T04:12:07.671Z,11.96
2019-06-01T04:14:37.217Z,12.00
2019-06-01T04:17:08.011Z,12.03
2019-06-01T04:19:37.608Z,12.06
2019-06-01T04:22:10.072Z,12.16
2019-06-01T04:24:39.607Z,12.12
2019-06-01T04:27:10.255Z,12.17
2019-06-01T04:29:39.818Z,12.18
2019-06-01T04:32:09.221Z,12.15
2019-06-01T04:34:38.613Z,12.15
2019-06-01T04:37:09.150Z,12.27
2019-06-01T04:39:38.723Z,12.29
2019-06-01T04:42:08.222Z,12.40
2019-06-01T04:44:37.609Z,12.41
2019-06-01T04:47:09.129Z,12.50
2019-06-01T04:49:38.195Z,12.61
2019-06-01T04:52:08.841Z,12.60
2019-06-01T04:54:38.254Z,12.67
2019-06-01T04:57:08.823Z,12.74
2019-06-01T04:59:38.332Z,12.80
2019-06-01T05:02:09.097Z,12.83
2019-06-01T05:04:38.698Z,12.88
2019-06-01T05:07:09.283Z,12.87
2019-06-01T05:09:38.752Z,12.88
2019-06-01T05:12:09.242Z,12.92
2019-06-01T05:14:38.801Z,13.01
2019-06-01T05:17:08.388Z,12.94
2019-06-01T05:19:37.795Z,13.00
2019-06-01T05:22:08.368Z,13.02
2019-06-01T05:24:37.763Z,13.12
2019-06-01T05:27:08.895Z,13.22
2019-06-01T05:29:39.133Z,13.41
2019-06-01T05:32:08.559Z,13.25
2019-06-01T05:34:39.002Z,13.22
2019-06-01T05:37:08.542Z,13.22
2019-06-01T05:39:45.242Z,13.24
2019-06-01T05:42:14.850Z,13.32
2019-06-01T05:44:44.320Z,13.48
2019-06-01T05:47:14.251Z,13.42
2019-06-01T05:49:43.696Z,13.31
2019-06-01T05:52:13.041Z,13.26
2019-06-01T05:54:42.458Z,13.35
2019-06-01T05:57:12.677Z,13.33
2019-06-01T05:59:42.115Z,13.36
2019-06-01T06:02:11.495Z,13.42
2019-06-01T06:04:40.915Z,13.42
2019-06-01T06:07:10.651Z,13.30
2019-06-01T06:09:40.218Z,13.28
2019-06-01T06:12:11.127Z,13.24
2019-06-01T06:14:40.665Z,13.22
2019-06-01T06:17:12.861Z,13.43
2019-06-01T06:19:41.169Z,13.62
2019-06-01T06:22:10.554Z,13.61
2019-06-01T06:24:39.948Z,13.72
2019-06-01T06:27:09.340Z,13.79
2019-06-01T06:29:38.685Z,13.87
2019-06-01T06:32:09.329Z,13.99
2019-06-01T06:34:38.923Z,14.02
2019-06-01T06:37:08.388Z,14.05
2019-06-01T06:39:37.742Z,14.25
2019-06-01T06:42:07.203Z,14.22
2019-06-01T06:44:36.871Z,14.31
2019-06-01T06:47:06.298Z,14.39
2019-06-01T06:49:35.674Z,14.39
2019-06-01T06:52:05.075Z,14.34
2019-06-01T06:54:34.408Z,14.31
2019-06-01T06:57:03.759Z,14.46
2019-06-01T06:59:33.191Z,14.33
2019-06-01T07:02:02.647Z,14.13
2019-06-01T07:04:31.980Z,14.50
2019-06-01T07:07:01.321Z,14.71
2019-06-01T07:09:30.772Z,14.85
2019-06-01T07:12:00.149Z,14.91
2019-06-01T07:14:29.543Z,14.91
2019-06-01T07:16:58.931Z,14.96
2019-06-01T07:19:28.518Z,15.24
2019-06-01T07:21:57.885Z,15.38
2019-06-01T07:24:28.102Z,15.56
2019-06-01T07:26:57.579Z,15.55
2019-06-01T07:29:28.039Z,15.51
2019-06-01T07:31:57.749Z,15.48
2019-06-01T07:34:37.740Z,15.33
2019-06-01T07:36:58.544Z,15.32
2019-06-01T07:39:29.088Z,15.38
2019-06-01T07:41:58.752Z,15.52
2019-06-01T07:44:29.263Z,15.65
2019-06-01T07:46:58.647Z,15.81
2019-06-01T07:49:29.200Z,16.01
2019-06-01T07:51:58.590Z,16.18
2019-06-01T07:54:28.503Z,16.33
2019-06-01T07:56:57.860Z,16.56
2019-06-01T07:59:28.321Z,16.77
2019-06-01T08:01:57.861Z,16.85
2019-06-01T08:04:28.617Z,16.88
2019-06-01T08:06:58.504Z,17.13
2019-06-01T08:09:27.983Z,17.32
2019-06-01T08:11:58.609Z,17.30
2019-06-01T08:14:28.619Z,17.36
2019-06-01T08:16:58.156Z,17.41
2019-06-01T08:19:28.071Z,17.08
2019-06-01T08:21:57.545Z,16.93
2019-06-01T08:24:28.196Z,17.05
2019-06-01T08:26:57.783Z,16.96
2019-06-01T08:29:27.116Z,17.09
2019-06-01T08:31:56.489Z,17.26
2019-06-01T08:34:26.918Z,17.31
2019-06-01T08:36:56.417Z,17.69
2019-06-01T08:39:25.792Z,17.85
2019-06-01T08:41:55.241Z,18.12
2019-06-01T08:44:25.418Z,18.21
2019-06-01T08:46:54.889Z,18.78
2019-06-01T08:49:24.328Z,18.72
2019-06-01T08:51:55.098Z,18.70
2019-06-01T08:54:24.481Z,18.52
2019-06-01T08:56:56.870Z,18.49
2019-06-01T08:59:26.305Z,18.57
2019-06-01T09:01:55.701Z,18.53
2019-06-01T09:04:25.052Z,18.40
2019-06-01T09:06:54.433Z,18.46
2019-06-01T09:09:24.898Z,18.64
2019-06-01T09:11:54.327Z,18.31
2019-06-01T09:14:25.097Z,18.02
2019-06-01T09:16:54.597Z,18.25
2019-06-01T09:19:25.326Z,18.45
2019-06-01T09:21:54.878Z,18.74
2019-06-01T09:24:25.655Z,18.98
2019-06-01T09:26:55.159Z,19.07
2019-06-01T09:29:25.741Z,19.24
2019-06-01T09:31:55.183Z,19.12
2019-06-01T09:34:24.525Z,19.21
2019-06-01T09:36:55.625Z,19.08
2019-06-01T09:39:26.466Z,19.34
2019-06-01T09:41:56.014Z,19.53
2019-06-01T09:44:26.768Z,19.59
2019-06-01T09:46:56.269Z,19.68
2019-06-01T09:49:25.652Z,19.70
2019-06-01T09:51:55.054Z,19.47
2019-06-01T09:54:24.525Z,19.23
2019-06-01T09:56:53.917Z,19.11
2019-06-01T09:59:23.281Z,19.23
2019-06-01T10:01:52.627Z,19.17
2019-06-01T10:04:22.027Z,19.34
2019-06-01T10:06:51.367Z,19.34
2019-06-01T10:09:20.767Z,19.43
2019-06-01T10:11:50.171Z,19.66
2019-06-01T10:14:19.524Z,20.03
2019-06-01T10:16:48.914Z,20.27
2019-06-01T10:19:18.301Z,20.08
2019-06-01T10:21:47.672Z,20.26
2019-06-01T10:24:17.081Z,20.52
2019-06-01T10:26:46.677Z,21.03
2019-06-01T10:29:16.071Z,20.97
2019-06-01T10:31:45.716Z,20.70
2019-06-01T10:34:15.183Z,20.47
2019-06-01T10:36:44.579Z,20.71
2019-06-01T10:39:14.031Z,21.12
2019-06-01T10:41:43.552Z,21.45
2019-06-01T10:44:12.892Z,21.75
2019-06-01T10:46:42.264Z,21.40
2019-06-01T10:49:11.695Z,21.31
2019-06-01T10:51:42.267Z,21.09
2019-06-01T10:54:11.818Z,21.51
2019-06-01T10:56:42.477Z,21.87
2019-06-01T10:59:12.010Z,22.13
2019-06-01T11:01:42.614Z,22.13
2019-06-01T11:04:12.213Z,22.61
2019-06-01T11:06:47.788Z,22.76
2019-06-01T11:09:12.755Z,22.86
2019-06-01T11:11:43.207Z,23.34
2019-06-01T11:14:12.586Z,23.11
2019-06-01T11:16:43.788Z,23.07
2019-06-01T11:19:13.576Z,22.89
2019-06-01T11:21:43.752Z,22.32
2019-06-01T11:24:13.249Z,22.30
2019-06-01T11:26:43.772Z,21.86
2019-06-01T11:29:13.297Z,21.93
2019-06-01T11:31:44.105Z,22.82
2019-06-01T11:34:13.660Z,23.65
2019-06-01T11:37:03.308Z,24.47
2019-06-01T11:39:14.190Z,24.16
2019-06-01T11:41:44.779Z,24.34
2019-06-01T11:44:14.186Z,24.58
2019-06-01T11:46:43.563Z,24.91
2019-06-01T11:49:12.930Z,24.56
2019-06-01T11:51:43.340Z,24.07
2019-06-01T11:54:12.889Z,24.56
2019-06-01T11:56:43.308Z,24.91
2019-06-01T11:59:12.865Z,24.80
2019-06-01T12:01:42.607Z,24.51
2019-06-01T12:04:13.370Z,24.41
2019-06-01T12:06:44.027Z,24.24
2019-06-01T12:09:16.590Z,24.18
2019-06-01T12:11:46.397Z,24.30
2019-06-01T12:14:15.971Z,24.04
2019-06-01T12:16:46.653Z,24.13
2019-06-01T12:19:16.471Z,23.89
2019-06-01T12:21:47.451Z,23.83
2019-06-01T12:24:16.941Z,24.39
2019-06-01T12:26:47.587Z,24.70
2019-06-01T12:29:17.167Z,24.41
2019-06-01T12:31:46.913Z,24.99
2019-06-01T12:34:17.398Z,25.30
2019-06-01T12:36:46.791Z,25.27
2019-06-01T12:39:16.187Z,24.81
2019-06-01T12:41:45.790Z,25.25
2019-06-01T12:44:15.821Z,25.28
2019-06-01T12:46:45.130Z,25.57
2019-06-01T12:49:14.514Z,26.12
2019-06-01T12:51:44.525Z,26.42
2019-06-01T12:54:14.043Z,26.32
2019-06-01T12:56:44.682Z,27.16
2019-06-01T12:59:14.242Z,27.37
2019-06-01T13:01:43.581Z,27.29
2019-06-01T13:04:13.743Z,26.53
2019-06-01T13:06:43.140Z,26.54
2019-06-01T13:09:12.576Z,26.80
2019-06-01T13:11:43.212Z,26.87
2019-06-01T13:14:12.697Z,26.71
2019-06-01T13:16:47.650Z,26.70
2019-06-01T13:19:13.652Z,26.76
2019-06-01T13:21:43.462Z,27.30
2019-06-01T13:24:12.849Z,28.15
2019-06-01T13:26:43.618Z,28.45
2019-06-01T13:29:13.136Z,28.84
2019-06-01T13:31:42.514Z,28.66
2019-06-01T13:34:11.989Z,28.62
2019-06-01T13:36:42.490Z,28.87
2019-06-01T13:39:11.868Z,28.83
2019-06-01T13:41:41.253Z,28.64
2019-06-01T13:44:10.679Z,28.54
2019-06-01T13:46:40.078Z,27.72
2019-06-01T13:49:09.491Z,27.37
2019-06-01T13:51:38.839Z,26.80
2019-06-01T13:54:08.174Z,26.31
2019-06-01T13:56:37.497Z,26.35
2019-06-01T13:59:06.985Z,25.75
2019-06-01T14:01:36.319Z,25.41
2019-06-01T14:04:07.128Z,25.29
2019-06-01T14:06:36.467Z,25.18
2019-06-01T14:09:07.984Z,24.64
2019-06-01T14:11:40.757Z,24.82
2019-06-01T14:14:10.175Z,24.85
2019-06-01T14:16:39.512Z,24.91
2019-06-01T14:19:08.915Z,25.04
2019-06-01T14:21:38.276Z,25.06
2019-06-01T14:24:07.613Z,24.93
2019-06-01T14:26:36.964Z,24.86
2019-06-01T14:29:07.484Z,24.89
2019-06-01T14:31:36.882Z,24.88
2019-06-01T14:34:06.637Z,24.97
2019-06-01T14:36:36.010Z,24.81
2019-06-01T14:39:07.340Z,24.83
2019-06-01T14:41:36.679Z,25.03
2019-06-01T14:44:06.091Z,24.89
2019-06-01T14:46:50.256Z,24.63
2019-06-01T14:49:06.905Z,24.30
2019-06-01T14:51:36.399Z,24.15
2019-06-01T14:54:05.951Z,23.76
2019-06-01T14:56:35.377Z,23.56
2019-06-01T14:59:04.944Z,23.47
2019-06-01T15:01:34.358Z,23.33
2019-06-01T15:04:03.927Z,23.20
2019-06-01T15:06:33.273Z,23.13
2019-06-01T15:09:17.676Z,23.06
2019-06-01T15:11:33.752Z,23.05
2019-06-01T15:14:03.191Z,22.90
2019-06-01T15:16:32.738Z,22.50
2019-06-01T15:19:02.349Z,21.75
2019-06-01T15:21:31.861Z,21.61
2019-06-01T15:24:02.337Z,21.70
2019-06-01T15:26:31.721Z,22.03
2019-06-01T15:29:01.391Z,22.12
2019-06-01T15:31:30.769Z,22.31
2019-06-01T15:34:01.694Z,22.07
2019-06-01T15:36:31.461Z,21.70
2019-06-01T15:39:02.151Z,21.40
2019-06-01T15:41:31.679Z,21.42
2019-06-01T15:44:01.277Z,21.13
2019-06-01T15:46:30.656Z,21.01
2019-06-01T15:49:00.264Z,20.78
2019-06-01T15:51:29.637Z,20.88
2019-06-01T15:53:59.104Z,21.07
2019-06-01T15:56:28.663Z,21.15
2019-06-01T15:58:58.671Z,21.14
2019-06-01T16:01:29.209Z,21.26
2019-06-01T16:03:59.229Z,21.46
2019-06-01T16:06:28.817Z,21.56
2019-06-01T16:08:59.342Z,21.07
2019-06-01T16:11:28.796Z,20.88
2019-06-01T16:13:58.214Z,20.79
2019-06-01T16:16:27.628Z,20.89
2019-06-01T16:19:02.817Z,20.82
2019-06-01T16:21:28.982Z,20.93
2019-06-01T16:23:58.371Z,21.02
2019-06-01T16:26:27.749Z,21.30
2019-06-01T16:28:58.513Z,21.49
2019-06-01T16:31:28.012Z,21.60
2019-06-01T16:33:58.514Z,21.63
2019-06-01T16:36:28.060Z,21.75
2019-06-01T16:39:02.747Z,21.81
2019-06-01T16:41:28.561Z,21.88
2019-06-01T16:43:57.898Z,21.86
2019-06-01T16:46:27.269Z,21.98
2019-06-01T16:48:57.496Z,21.93
2019-06-01T16:51:26.950Z,21.81
2019-06-01T16:53:56.367Z,21.77
2019-06-01T16:56:25.743Z,21.79
2019-06-01T16:58:55.995Z,21.73
2019-06-01T17:01:26.377Z,21.55
2019-06-01T17:03:56.393Z,21.59
2019-06-01T17:06:25.842Z,21.51
2019-06-01T17:08:56.612Z,21.49
2019-06-01T17:11:26.197Z,21.48
2019-06-01T17:13:56.592Z,21.28
2019-06-01T17:16:26.100Z,21.14
2019-06-01T17:18:56.875Z,21.15
2019-06-01T17:21:26.315Z,20.95
2019-06-01T17:23:55.732Z,20.79
2019-06-01T17:26:25.116Z,20.58
2019-06-01T17:28:54.503Z,20.42
2019-06-01T17:31:23.877Z,20.30
2019-06-01T17:33:53.209Z,20.23
2019-06-01T17:36:22.575Z,20.16
2019-06-01T17:38:51.967Z,20.16
2019-06-01T17:41:21.349Z,20.14
2019-06-01T17:43:50.819Z,20.11
2019-06-01T17:46:20.213Z,20.03
2019-06-01T17:48:50.900Z,20.02
2019-06-01T17:51:20.239Z,19.99
2019-06-01T17:53:53.123Z,19.96
2019-06-01T17:56:20.725Z,19.88
2019-06-01T17:58:51.610Z,19.90
2019-06-01T18:01:20.973Z,19.90
2019-06-01T18:03:50.367Z,19.89
2019-06-01T18:06:19.741Z,19.79
2019-06-01T18:08:49.631Z,19.86
2019-06-01T18:11:18.997Z,19.79
2019-06-01T18:13:50.392Z,19.73
2019-06-01T18:16:19.751Z,19.62
2019-06-01T18:18:49.072Z,19.63
2019-06-01T18:21:18.439Z,19.58
2019-06-01T18:23:49.277Z,19.48
2019-06-01T18:26:18.830Z,19.52
2019-06-01T18:28:49.466Z,19.45
2019-06-01T18:31:18.928Z,19.46
2019-06-01T18:33:48.313Z,19.39
2019-06-01T18:36:17.669Z,19.43
2019-06-01T18:38:47.066Z,19.44
2019-06-01T18:41:19.887Z,19.37
2019-06-01T18:43:47.571Z,19.30
2019-06-01T18:46:17.056Z,19.24
2019-06-01T18:48:46.404Z,19.26
2019-06-01T18:51:15.750Z,19.13
2019-06-01T18:53:45.146Z,19.13
2019-06-01T18:56:14.514Z,19.15
2019-06-01T18:58:43.960Z,19.16
2019-06-01T19:01:14.646Z,19.11
2019-06-01T19:03:44.187Z,19.10
2019-06-01T19:06:13.878Z,19.11
2019-06-01T19:08:43.433Z,19.04
2019-06-01T19:11:27.352Z,19.00
2019-06-01T19:13:43.929Z,18.94
2019-06-01T19:16:14.318Z,18.97
2019-06-01T19:18:43.789Z,18.93
2019-06-01T19:21:13.170Z,18.95
2019-06-01T19:23:42.516Z,18.88
2019-06-01T19:26:14.796Z,18.88
2019-06-01T19:28:43.004Z,18.84
2019-06-01T19:31:13.387Z,18.83
2019-06-01T19:33:43.232Z,18.79
2019-06-01T19:36:13.083Z,18.76
2019-06-01T19:38:44.098Z,18.75
2019-06-01T19:41:13.537Z,18.77
2019-06-01T19:43:43.111Z,18.66
2019-06-01T19:46:12.506Z,18.58
2019-06-01T19:48:41.891Z,18.56
2019-06-01T19:51:12.384Z,18.50
2019-06-01T19:53:42.437Z,18.49
2019-06-01T19:56:12.891Z,18.38
2019-06-01T19:58:42.339Z,18.32
2019-06-01T20:01:12.282Z,18.33
2019-06-01T20:03:41.765Z,18.34
2019-06-01T20:06:11.181Z,18.33
2019-06-01T20:08:40.634Z,18.24
2019-06-01T20:11:11.165Z,18.21
2019-06-01T20:13:40.546Z,18.18
2019-06-01T20:16:16.796Z,18.17
2019-06-01T20:18:57.473Z,18.20
2019-06-01T20:21:27.294Z,18.22
2019-06-01T20:23:57.258Z,18.19
2019-06-01T20:26:40.840Z,18.16
2019-06-01T20:29:03.602Z,18.18
2019-06-01T20:31:32.946Z,18.13
2019-06-01T20:34:05.838Z,18.12
2019-06-01T20:36:35.343Z,18.03
2019-06-01T20:39:07.920Z,17.96
2019-06-01T20:41:37.299Z,17.93
2019-06-01T20:44:06.660Z,17.76
2019-06-01T20:46:36.065Z,17.78
2019-06-01T20:49:05.574Z,17.79
2019-06-01T20:51:34.942Z,17.78
2019-06-01T20:54:04.299Z,17.75
2019-06-01T20:56:33.674Z,17.70
2019-06-01T20:59:03.073Z,17.72
2019-06-01T21:01:32.435Z,17.70
2019-06-01T21:04:01.851Z,17.61
2019-06-01T21:06:31.203Z,17.63
2019-06-01T21:09:00.549Z,17.58
2019-06-01T21:11:29.930Z,17.54
2019-06-01T21:13:59.300Z,17.55
2019-06-01T21:16:28.639Z,17.57
2019-06-01T21:18:58.013Z,17.61
2019-06-01T21:21:27.539Z,17.63
2019-06-01T21:23:56.956Z,17.59
2019-06-01T21:26:26.296Z,17.63
2019-06-01T21:28:55.650Z,17.67
2019-06-01T21:31:25.454Z,17.44
2019-06-01T21:33:55.014Z,17.51
2019-06-01T21:36:25.794Z,17.45
2019-06-01T21:38:55.284Z,17.43
2019-06-01T21:41:25.772Z,17.47
2019-06-01T21:43:55.215Z,17.35
2019-06-01T21:46:25.731Z,17.41
2019-06-01T21:48:56.183Z,17.31
2019-06-01T21:51:26.015Z,17.20
2019-06-01T21:53:55.599Z,17.14
2019-06-01T21:56:25.249Z,16.89
2019-06-01T21:58:55.905Z,16.83
2019-06-01T22:01:25.245Z,16.87
2019-06-01T22:03:54.631Z,16.88
2019-06-01T22:06:25.544Z,16.95
2019-06-01T22:08:55.072Z,17.03
2019-06-01T22:11:25.562Z,16.83
2019-06-01T22:13:55.110Z,16.81
2019-06-01T22:16:25.726Z,16.73
2019-06-01T22:18:55.335Z,16.64
2019-06-01T22:21:25.857Z,16.45
2019-06-01T22:23:55.364Z,16.43
2019-06-01T22:26:24.749Z,16.51
2019-06-01T22:28:54.119Z,16.56
2019-06-01T22:31:24.573Z,16.54
2019-06-01T22:33:54.003Z,16.51
2019-06-01T22:36:23.363Z,16.47
2019-06-01T22:38:52.737Z,16.42
2019-06-01T22:41:22.085Z,16.33
2019-06-01T22:43:51.472Z,16.34
2019-06-01T22:46:20.868Z,16.41
2019-06-01T22:48:50.228Z,16.42
2019-06-01T22:51:20.778Z,16.45
2019-06-01T22:53:50.146Z,16.43
2019-06-01T22:56:19.530Z,16.48
2019-06-01T22:58:48.887Z,16.46
2019-06-01T23:01:18.295Z,16.46
2019-06-01T23:03:47.649Z,16.48
2019-06-01T23:06:17.029Z,16.50
2019-06-01T23:08:46.407Z,16.49
2019-06-01T23:11:15.824Z,16.49
2019-06-01T23:13:53.499Z,16.57
2019-06-01T23:16:16.309Z,16.60
2019-06-01T23:18:45.649Z,16.65
2019-06-01T23:21:15.001Z,16.69
2019-06-01T23:23:44.363Z,16.50
2019-06-01T23:26:13.682Z,16.50
2019-06-01T23:28:43.050Z,16.21
2019-06-01T23:31:12.392Z,15.89
2019-06-01T23:33:41.911Z,15.83
2019-06-01T23:36:11.261Z,16.09
2019-06-01T23:38:40.611Z,16.06
2019-06-01T23:41:09.964Z,15.96
2019-06-01T23:43:39.418Z,15.94
2019-06-01T23:46:08.785Z,15.78
2019-06-01T23:48:38.148Z,15.63
2019-06-01T23:51:07.541Z,15.73
2019-06-01T23:53:36.920Z,15.90
2019-06-01T23:56:06.272Z,15.83
2019-06-01T23:58:35.669Z,15.77
